createdAt,value
2023-01-19T00:00:17.955Z,18.27
2023-01-19T00:02:47.139Z,20.38
2023-01-19T00:05:14.057Z,19.10
2023-01-19T00:07:40.777Z,20.05
2023-01-19T00:10:07.390Z,21.40
2023-01-19T00:12:33.730Z,19.63
2023-01-19T00:14:59.984Z,18.95
2023-01-19T00:17:26.336Z,19.73
2023-01-19T00:19:52.629Z,22.52
2023-01-19T00:22:18.935Z,21.40
2023-01-19T00:24:45.990Z,23.05
2023-01-19T00:27:12.333Z,18.77
2023-01-19T00:29:38.620Z,19.63
2023-01-19T00:32:05.339Z,18.13
2023-01-19T00:34:49.236Z,15.65
2023-01-19T00:37:16.668Z,15.40
2023-01-19T00:39:43.477Z,20.33
2023-01-19T00:42:30.938Z,17.77
2023-01-19T00:44:57.360Z,19.50
2023-01-19T00:47:24.151Z,23.27
2023-01-19T00:49:50.491Z,20.45
2023-01-19T00:52:16.751Z,18.60
2023-01-19T00:54:43.065Z,18.58
2023-01-19T00:57:09.388Z,18.52
2023-01-19T00:59:35.649Z,16.25
2023-01-19T01:02:02.119Z,17.70
2023-01-19T01:04:28.563Z,16.17
2023-01-19T01:06:54.833Z,15.80
2023-01-19T01:09:21.118Z,16.27
2023-01-19T01:11:47.436Z,16.70
2023-01-19T01:14:13.693Z,15.88
2023-01-19T01:16:40.250Z,15.30
2023-01-19T01:19:06.536Z,18.65
2023-01-19T01:21:34.509Z,16.75
2023-01-19T01:24:00.960Z,18.17
2023-01-19T01:26:27.879Z,17.38
2023-01-19T01:28:54.148Z,17.67
2023-01-19T01:31:20.496Z,17.85
2023-01-19T01:33:46.802Z,15.50
2023-01-19T01:36:13.100Z,17.23
2023-01-19T01:38:40.319Z,14.88
2023-01-19T01:41:06.653Z,15.38
2023-01-19T01:43:54.069Z,15.95
2023-01-19T01:46:20.539Z,15.95
2023-01-19T01:48:50.816Z,17.60
2023-01-19T01:51:25.717Z,19.27
2023-01-19T01:54:06.742Z,19.13
2023-01-19T01:56:38.584Z,22.90
2023-01-19T01:59:06.409Z,25.50
2023-01-19T02:01:51.274Z,21.73
2023-01-19T02:04:17.978Z,22.10
2023-01-19T02:07:04.843Z,19.27
2023-01-19T02:09:51.187Z,16.33
2023-01-19T02:12:36.024Z,19.88
2023-01-19T02:15:02.381Z,20.20
2023-01-19T02:17:28.735Z,21.23
2023-01-19T02:19:55.130Z,17.80
2023-01-19T02:22:27.274Z,17.02
2023-01-19T02:24:53.902Z,19.48
2023-01-19T02:27:20.602Z,17.75
2023-01-19T02:29:46.940Z,17.33
2023-01-19T02:32:13.243Z,23.30
2023-01-19T02:34:39.640Z,21.38
2023-01-19T02:37:09.809Z,24.73
2023-01-19T02:39:41.540Z,21.95
2023-01-19T02:42:13.320Z,22.25
2023-01-19T02:44:40.545Z,20.65
2023-01-19T02:47:07.278Z,25.23
2023-01-19T02:49:33.617Z,21.45
2023-01-19T02:52:00.947Z,18.35
2023-01-19T02:54:33.152Z,21.15
2023-01-19T02:57:18.238Z,24.15
2023-01-19T02:59:59.096Z,20.08
2023-01-19T03:02:40.453Z,24.75
2023-01-19T03:05:25.934Z,22.13
2023-01-19T03:08:10.656Z,23.50
2023-01-19T03:10:56.797Z,25.10
2023-01-19T03:13:32.000Z,24.80
2023-01-19T03:16:17.894Z,29.63
2023-01-19T03:18:47.272Z,22.90
2023-01-19T03:21:14.121Z,24.48
2023-01-19T03:23:41.443Z,27.30
2023-01-19T03:26:09.825Z,26.50
2023-01-19T03:28:38.638Z,26.23
2023-01-19T03:31:13.597Z,21.92
2023-01-19T03:33:43.161Z,30.05
2023-01-19T03:36:15.271Z,25.08
2023-01-19T03:38:42.881Z,29.30
2023-01-19T03:41:12.946Z,27.48
2023-01-19T03:43:39.874Z,23.58
2023-01-19T03:46:06.357Z,29.13
2023-01-19T03:48:33.033Z,25.95
2023-01-19T03:51:02.883Z,30.90
2023-01-19T03:53:29.178Z,25.40
2023-01-19T03:55:55.515Z,24.73
2023-01-19T03:58:22.330Z,31.77
2023-01-19T04:00:48.638Z,31.38
2023-01-19T04:03:15.998Z,28.77
2023-01-19T04:05:42.750Z,32.17
2023-01-19T04:08:08.994Z,32.72
2023-01-19T04:10:35.562Z,27.20
2023-01-19T04:13:02.798Z,31.52
2023-01-19T04:15:29.826Z,26.13
2023-01-19T04:18:01.513Z,31.33
2023-01-19T04:20:28.281Z,26.92
2023-01-19T04:22:55.084Z,30.10
2023-01-19T04:25:21.524Z,26.27
2023-01-19T04:27:51.493Z,28.50
2023-01-19T04:30:17.848Z,28.73
2023-01-19T04:32:44.197Z,26.42
2023-01-19T04:35:10.700Z,26.63
2023-01-19T04:37:37.116Z,24.90
2023-01-19T04:40:03.493Z,28.50
2023-01-19T04:42:29.854Z,27.80
2023-01-19T04:44:56.156Z,27.73
2023-01-19T04:47:22.436Z,30.33
2023-01-19T04:49:48.786Z,27.63
2023-01-19T04:52:15.100Z,29.67
2023-01-19T04:54:41.361Z,30.08
2023-01-19T04:57:07.757Z,28.45
2023-01-19T04:59:34.077Z,28.02
2023-01-19T05:02:00.360Z,28.55
2023-01-19T05:04:26.954Z,33.35
2023-01-19T05:06:54.240Z,27.98
2023-01-19T05:09:20.543Z,26.50
2023-01-19T05:11:47.014Z,31.95
2023-01-19T05:14:13.328Z,35.15
2023-01-19T05:16:39.637Z,30.77
2023-01-19T05:19:06.080Z,34.33
2023-01-19T05:21:32.433Z,31.27
2023-01-19T05:23:58.876Z,38.55
2023-01-19T05:26:25.179Z,42.97
2023-01-19T05:28:51.489Z,42.10
2023-01-19T05:31:19.518Z,45.88
2023-01-19T05:33:45.974Z,36.70
2023-01-19T05:36:12.321Z,30.55
2023-01-19T05:38:38.837Z,32.00
2023-01-19T05:41:05.236Z,31.83
2023-01-19T05:43:31.570Z,31.38
2023-01-19T05:45:57.882Z,27.90
2023-01-19T05:48:24.209Z,30.55
2023-01-19T05:50:50.516Z,30.48
2023-01-19T05:53:17.103Z,33.33
2023-01-19T05:55:43.497Z,28.00
2023-01-19T05:58:09.765Z,30.30
2023-01-19T06:00:36.038Z,28.33
2023-01-19T06:03:02.960Z,32.58
2023-01-19T06:05:29.625Z,32.65
2023-01-19T06:07:56.612Z,39.40
2023-01-19T06:10:23.297Z,31.67
2023-01-19T06:12:49.792Z,33.13
2023-01-19T06:15:16.338Z,35.30
2023-01-19T06:17:42.876Z,36.10
2023-01-19T06:20:09.781Z,41.85
2023-01-19T06:22:36.073Z,33.50
2023-01-19T06:25:02.546Z,31.77
2023-01-19T06:27:28.867Z,32.25
2023-01-19T06:29:55.188Z,31.83
2023-01-19T06:32:21.509Z,34.13
2023-01-19T06:34:47.906Z,36.88
2023-01-19T06:37:16.082Z,33.67
2023-01-19T06:39:42.589Z,34.90
2023-01-19T06:42:08.976Z,33.22
2023-01-19T06:44:35.305Z,38.22
2023-01-19T06:47:15.670Z,35.70
2023-01-19T06:49:42.811Z,34.40
2023-01-19T06:52:11.207Z,38.05
2023-01-19T06:54:37.538Z,35.72
2023-01-19T06:57:04.168Z,34.15
2023-01-19T06:59:30.504Z,35.45
2023-01-19T07:01:56.994Z,36.75
2023-01-19T07:04:23.459Z,34.45
2023-01-19T07:06:49.946Z,35.40
2023-01-19T07:09:17.075Z,38.58
2023-01-19T07:11:43.474Z,31.48
2023-01-19T07:14:09.782Z,32.78
2023-01-19T07:16:36.174Z,34.25
2023-01-19T07:19:02.635Z,37.10
2023-01-19T07:21:29.466Z,33.10
2023-01-19T07:23:56.018Z,35.55
2023-01-19T07:26:24.944Z,32.78
2023-01-19T07:28:52.000Z,36.97
2023-01-19T07:31:18.897Z,34.13
2023-01-19T07:33:45.535Z,36.17
2023-01-19T07:36:12.145Z,34.25
2023-01-19T07:38:38.500Z,35.55
2023-01-19T07:41:05.966Z,37.35
2023-01-19T07:43:32.980Z,35.50
2023-01-19T07:45:59.840Z,32.60
2023-01-19T07:48:26.224Z,31.70
2023-01-19T07:50:52.749Z,30.02
2023-01-19T07:53:19.049Z,30.30
2023-01-19T07:55:45.390Z,33.13
2023-01-19T07:58:11.721Z,26.58
2023-01-19T08:00:38.297Z,32.05
2023-01-19T08:03:05.418Z,29.83
2023-01-19T08:05:33.038Z,27.65
2023-01-19T08:08:00.306Z,30.33
2023-01-19T08:10:27.304Z,28.20
2023-01-19T08:12:57.437Z,27.30
2023-01-19T08:15:24.601Z,30.60
2023-01-19T08:17:55.913Z,25.27
2023-01-19T08:20:23.178Z,30.58
2023-01-19T08:22:49.812Z,29.52
2023-01-19T08:25:16.273Z,27.08
2023-01-19T08:27:42.536Z,25.25
2023-01-19T08:30:09.123Z,28.40
2023-01-19T08:32:35.869Z,26.85
2023-01-19T08:35:02.135Z,26.77
2023-01-19T08:37:28.404Z,28.95
2023-01-19T08:39:54.724Z,27.77
2023-01-19T08:42:20.996Z,25.13
2023-01-19T08:44:57.576Z,27.65
2023-01-19T08:47:24.401Z,26.35
2023-01-19T08:49:50.715Z,30.10
2023-01-19T08:52:16.984Z,23.70
2023-01-19T08:54:43.319Z,25.88
2023-01-19T08:57:09.602Z,27.33
2023-01-19T08:59:36.819Z,25.58
2023-01-19T09:02:03.245Z,25.42
2023-01-19T09:04:29.643Z,25.45
2023-01-19T09:06:55.991Z,23.13
2023-01-19T09:09:22.429Z,23.85
2023-01-19T09:11:48.977Z,22.42
2023-01-19T09:14:15.279Z,22.90
2023-01-19T09:16:42.209Z,21.25
2023-01-19T09:19:09.120Z,22.88
2023-01-19T09:21:35.437Z,21.80
2023-01-19T09:24:01.820Z,23.95
2023-01-19T09:26:28.187Z,18.50
2023-01-19T09:28:54.569Z,21.27
2023-01-19T09:31:21.283Z,18.70
2023-01-19T09:33:47.678Z,20.33
2023-01-19T09:36:14.022Z,18.05
2023-01-19T09:38:40.613Z,18.58
2023-01-19T09:41:14.513Z,17.92
2023-01-19T09:44:00.147Z,14.68
2023-01-19T09:46:39.945Z,16.80
2023-01-19T09:49:16.278Z,16.02
2023-01-19T09:51:46.840Z,19.38
2023-01-19T09:54:17.948Z,14.43
2023-01-19T09:56:45.135Z,14.65
2023-01-19T09:59:14.465Z,21.23
2023-01-19T10:01:46.741Z,14.60
2023-01-19T10:04:25.650Z,16.95
2023-01-19T10:06:54.233Z,16.30
2023-01-19T10:09:29.614Z,16.17
2023-01-19T10:12:03.348Z,16.00
2023-01-19T10:17:05.854Z,16.30
2023-01-19T10:19:40.055Z,16.50
2023-01-19T10:22:23.064Z,17.13
2023-01-19T10:24:54.684Z,14.70
2023-01-19T10:27:23.968Z,16.85
2023-01-19T10:29:50.522Z,14.05
2023-01-19T10:32:19.712Z,18.60
2023-01-19T10:34:46.542Z,19.02
2023-01-19T10:37:31.172Z,17.92
2023-01-19T10:40:00.927Z,17.00
2023-01-19T10:42:29.084Z,18.63
2023-01-19T10:44:55.599Z,17.63
2023-01-19T10:47:27.239Z,16.58
2023-01-19T10:49:53.622Z,16.75
2023-01-19T10:52:29.753Z,15.70
2023-01-19T10:54:56.653Z,15.05
2023-01-19T10:57:34.487Z,15.90
2023-01-19T11:00:00.865Z,16.85
2023-01-19T11:02:31.272Z,16.52
2023-01-19T11:05:02.257Z,17.77
2023-01-19T11:07:33.217Z,14.43
2023-01-19T11:10:17.824Z,15.43
2023-01-19T11:13:04.269Z,19.38
2023-01-19T11:15:32.692Z,14.98
2023-01-19T11:17:59.294Z,12.90
2023-01-19T11:20:31.773Z,15.65
2023-01-19T11:23:04.645Z,15.20
2023-01-19T11:25:32.684Z,16.20
2023-01-19T11:27:59.139Z,16.75
2023-01-19T11:30:25.918Z,13.32
2023-01-19T11:32:52.500Z,13.88
2023-01-19T11:35:31.371Z,14.32
2023-01-19T11:38:12.786Z,14.68
2023-01-19T11:40:39.936Z,11.70
2023-01-19T11:43:06.181Z,12.25
2023-01-19T11:45:33.116Z,13.20
2023-01-19T11:48:02.588Z,12.05
2023-01-19T11:50:34.208Z,13.35
2023-01-19T11:53:04.644Z,10.40
2023-01-19T11:55:34.131Z,13.90
2023-01-19T11:58:00.878Z,14.00
2023-01-19T12:00:31.072Z,12.88
2023-01-19T12:03:00.958Z,11.85
2023-01-19T12:05:30.117Z,13.52
2023-01-19T12:07:58.621Z,11.93
2023-01-19T12:10:29.577Z,9.85
2023-01-19T12:12:56.493Z,12.18
2023-01-19T12:15:32.375Z,11.75
2023-01-19T12:18:00.864Z,13.48
2023-01-19T12:20:38.863Z,14.55
2023-01-19T12:23:17.337Z,11.10
2023-01-19T12:25:53.323Z,10.95
2023-01-19T12:28:22.930Z,13.05
2023-01-19T12:30:49.681Z,12.60
2023-01-19T12:33:28.987Z,9.55
2023-01-19T12:36:04.050Z,11.70
2023-01-19T12:38:35.815Z,12.52
2023-01-19T12:41:20.925Z,11.15
2023-01-19T12:44:06.209Z,10.88
2023-01-19T12:46:32.589Z,14.05
2023-01-19T12:49:10.885Z,14.60
2023-01-19T12:51:37.741Z,10.85
2023-01-19T12:54:06.653Z,11.02
2023-01-19T12:56:35.871Z,10.52
2023-01-19T12:59:02.537Z,14.50
2023-01-19T13:01:29.079Z,15.23
2023-01-19T13:04:03.936Z,12.60
2023-01-19T13:06:48.618Z,17.33
2023-01-19T13:09:31.485Z,13.00
2023-01-19T13:12:30.326Z,12.00
2023-01-19T13:15:15.456Z,12.45
2023-01-19T13:17:53.869Z,10.57
2023-01-19T13:20:24.742Z,13.63
2023-01-19T13:22:52.164Z,10.65
2023-01-19T13:25:26.466Z,14.15
2023-01-19T13:27:52.797Z,14.23
2023-01-19T13:30:21.797Z,12.48
2023-01-19T13:32:48.611Z,12.82
2023-01-19T13:35:17.077Z,14.45
2023-01-19T13:37:44.161Z,14.27
2023-01-19T13:40:24.231Z,13.20
2023-01-19T13:42:53.914Z,12.15
2023-01-19T13:45:33.680Z,13.52
2023-01-19T13:48:01.314Z,11.45
2023-01-19T13:50:31.626Z,12.55
2023-01-19T13:52:58.876Z,12.85
2023-01-19T13:55:29.027Z,12.20
2023-01-19T13:57:55.687Z,11.18
2023-01-19T14:00:22.160Z,14.23
2023-01-19T14:02:53.922Z,10.52
2023-01-19T14:05:23.379Z,12.65
2023-01-19T14:07:59.585Z,11.75
2023-01-19T14:10:26.074Z,9.98
2023-01-19T14:13:16.218Z,13.23
2023-01-19T14:15:42.958Z,12.25
2023-01-19T14:18:11.517Z,11.63
2023-01-19T14:20:38.116Z,16.25
2023-01-19T14:23:05.271Z,20.60
2023-01-19T14:25:32.772Z,16.67
2023-01-19T14:28:17.505Z,13.50
2023-01-19T14:30:57.729Z,16.00
2023-01-19T14:33:33.096Z,14.45
2023-01-19T14:36:08.497Z,13.68
2023-01-19T14:38:34.859Z,13.65
2023-01-19T14:41:01.289Z,15.25
2023-01-19T14:43:29.647Z,15.85
2023-01-19T14:45:56.046Z,12.95
2023-01-19T14:48:22.563Z,13.80
2023-01-19T14:51:02.430Z,12.77
2023-01-19T14:53:33.676Z,14.00
2023-01-19T14:56:02.115Z,10.77
2023-01-19T14:58:31.187Z,12.27
2023-01-19T15:00:58.009Z,9.60
2023-01-19T15:03:34.959Z,10.35
2023-01-19T15:06:05.057Z,10.82
2023-01-19T15:08:33.451Z,15.38
2023-01-19T15:11:09.490Z,11.98
2023-01-19T15:13:35.793Z,10.05
2023-01-19T15:16:03.681Z,13.43
2023-01-19T15:18:30.134Z,13.70
2023-01-19T15:21:02.527Z,13.40
2023-01-19T15:23:29.598Z,13.45
2023-01-19T15:25:59.939Z,15.55
2023-01-19T15:28:26.358Z,15.13
2023-01-19T15:30:55.486Z,16.33
2023-01-19T15:33:22.477Z,17.60
2023-01-19T15:35:49.415Z,16.83
2023-01-19T15:38:15.712Z,17.88
2023-01-19T15:40:42.030Z,19.77
2023-01-19T15:43:11.519Z,19.02
2023-01-19T15:45:56.795Z,19.50
2023-01-19T15:48:23.157Z,25.17
2023-01-19T15:50:49.459Z,22.60
2023-01-19T15:53:16.956Z,20.92
2023-01-19T15:55:43.507Z,22.25
2023-01-19T15:58:10.089Z,31.00
2023-01-19T16:00:36.518Z,32.83
2023-01-19T16:03:03.319Z,29.23
2023-01-19T16:05:41.941Z,26.25
2023-01-19T16:08:09.291Z,28.75
2023-01-19T16:10:35.729Z,28.13
2023-01-19T16:13:03.214Z,32.85
2023-01-19T16:15:29.533Z,28.88
2023-01-19T16:17:55.830Z,29.67
2023-01-19T16:20:22.181Z,33.40
2023-01-19T16:22:48.469Z,26.85
2023-01-19T16:25:14.799Z,28.80
2023-01-19T16:27:41.148Z,26.98
2023-01-19T16:30:07.857Z,31.58
2023-01-19T16:32:35.001Z,34.70
2023-01-19T16:35:01.237Z,31.73
2023-01-19T16:37:28.145Z,32.38
2023-01-19T16:39:54.519Z,33.13
2023-01-19T16:42:20.909Z,29.67
2023-01-19T16:44:47.315Z,33.80
2023-01-19T16:47:15.511Z,38.95
2023-01-19T16:49:41.798Z,36.35
2023-01-19T16:52:08.155Z,43.35
2023-01-19T16:54:34.561Z,49.53
2023-01-19T16:57:01.130Z,44.15
2023-01-19T16:59:28.950Z,43.15
2023-01-19T17:01:55.839Z,34.30
2023-01-19T17:04:22.664Z,42.28
2023-01-19T17:06:49.956Z,37.25
2023-01-19T17:09:16.754Z,38.13
2023-01-19T17:11:43.623Z,48.80
2023-01-19T17:14:17.767Z,46.00
2023-01-19T17:16:44.251Z,63.28
2023-01-19T17:19:13.494Z,49.55
2023-01-19T17:21:40.031Z,42.00
2023-01-19T17:24:06.510Z,44.83
2023-01-19T17:26:32.950Z,40.53
2023-01-19T17:29:00.180Z,41.80
2023-01-19T17:31:26.799Z,43.60
2023-01-19T17:33:53.210Z,49.53
2023-01-19T17:36:22.224Z,42.60
2023-01-19T17:38:49.179Z,44.03
2023-01-19T17:41:16.240Z,40.63
2023-01-19T17:43:42.620Z,41.38
2023-01-19T17:46:09.579Z,34.30
2023-01-19T17:48:35.942Z,40.03
2023-01-19T17:51:03.511Z,36.25
2023-01-19T17:53:29.833Z,42.47
2023-01-19T17:56:01.886Z,48.30
2023-01-19T17:58:29.474Z,46.38
2023-01-19T18:00:55.739Z,46.10
2023-01-19T18:03:22.075Z,43.92
2023-01-19T18:05:55.060Z,44.55
2023-01-19T18:08:21.487Z,54.20
2023-01-19T18:10:54.570Z,48.83
2023-01-19T18:13:21.089Z,54.10
2023-01-19T18:15:47.440Z,50.95
2023-01-19T18:18:13.794Z,57.83
2023-01-19T18:20:40.692Z,55.17
2023-01-19T18:23:07.098Z,43.63
2023-01-19T18:25:33.417Z,40.63
2023-01-19T18:27:59.744Z,40.22
2023-01-19T18:30:26.033Z,42.63
2023-01-19T18:32:52.377Z,41.13
2023-01-19T18:35:18.962Z,43.53
2023-01-19T18:37:45.266Z,45.05
2023-01-19T18:40:12.127Z,55.53
2023-01-19T18:42:38.602Z,56.05
2023-01-19T18:45:05.152Z,58.15
2023-01-19T18:47:32.644Z,60.80
2023-01-19T18:49:59.081Z,50.08
2023-01-19T18:52:25.406Z,54.67
2023-01-19T18:54:51.701Z,49.42
2023-01-19T18:57:18.094Z,53.55
2023-01-19T18:59:45.808Z,48.33
2023-01-19T19:02:13.271Z,51.10
2023-01-19T19:04:40.040Z,57.20
2023-01-19T19:07:06.511Z,55.15
2023-01-19T19:09:32.807Z,55.58
2023-01-19T19:11:59.167Z,55.50
2023-01-19T19:14:25.513Z,51.17
2023-01-19T19:16:51.839Z,55.72
2023-01-19T19:19:18.446Z,51.88
2023-01-19T19:21:44.890Z,57.63
2023-01-19T19:24:13.305Z,56.17
2023-01-19T19:26:39.648Z,52.15
2023-01-19T19:29:06.040Z,49.95
2023-01-19T19:31:32.406Z,53.75
2023-01-19T19:33:59.098Z,55.10
2023-01-19T19:36:26.464Z,55.42
2023-01-19T19:38:52.799Z,56.08
2023-01-19T19:41:20.576Z,67.22
2023-01-19T19:43:46.980Z,65.57
2023-01-19T19:46:14.524Z,68.38
2023-01-19T19:48:41.712Z,48.05
2023-01-19T19:51:27.615Z,50.92
2023-01-19T19:53:55.196Z,58.80
2023-01-19T19:56:22.590Z,50.25
2023-01-19T19:58:49.414Z,50.90
2023-01-19T20:01:20.165Z,49.33
2023-01-19T20:03:46.615Z,43.63
2023-01-19T20:06:21.098Z,38.92
2023-01-19T20:08:48.007Z,33.00
2023-01-19T20:11:15.671Z,31.20
2023-01-19T20:13:42.839Z,30.58
2023-01-19T20:16:11.032Z,27.45
2023-01-19T20:18:38.191Z,39.42
2023-01-19T20:21:15.043Z,30.70
2023-01-19T20:23:41.973Z,25.35
2023-01-19T20:26:09.550Z,34.28
2023-01-19T20:28:36.321Z,28.17
2023-01-19T20:31:09.797Z,30.20
2023-01-19T20:33:36.231Z,31.38
2023-01-19T20:36:02.882Z,34.67
2023-01-19T20:38:29.225Z,31.98
2023-01-19T20:40:55.533Z,25.77
2023-01-19T20:43:21.842Z,22.98
2023-01-19T20:45:48.200Z,23.77
2023-01-19T20:48:14.740Z,29.73
2023-01-19T20:50:41.067Z,24.05
2023-01-19T20:53:07.394Z,22.90
2023-01-19T20:55:33.810Z,36.22
2023-01-19T20:58:00.104Z,40.22
2023-01-19T21:00:26.613Z,43.10
2023-01-19T21:02:52.904Z,43.63
2023-01-19T21:05:19.291Z,46.17
2023-01-19T21:07:45.723Z,39.60
2023-01-19T21:10:12.036Z,39.10
2023-01-19T21:12:38.390Z,41.92
2023-01-19T21:15:05.011Z,41.25
2023-01-19T21:17:31.298Z,43.67
2023-01-19T21:19:57.748Z,43.42
2023-01-19T21:22:24.063Z,47.58
2023-01-19T21:24:50.413Z,47.28
2023-01-19T21:27:16.728Z,45.83
2023-01-19T21:29:43.109Z,47.75
2023-01-19T21:32:09.420Z,45.03
2023-01-19T21:34:35.781Z,47.03
2023-01-19T21:37:02.089Z,43.70
2023-01-19T21:39:28.369Z,39.03
2023-01-19T21:41:54.672Z,42.30
2023-01-19T21:44:21.185Z,40.97
2023-01-19T21:46:47.595Z,42.08
2023-01-19T21:49:17.244Z,46.53
2023-01-19T21:51:43.600Z,49.60
2023-01-19T21:54:09.981Z,41.22
2023-01-19T21:56:37.866Z,40.55
2023-01-19T21:59:04.522Z,37.67
2023-01-19T22:01:31.454Z,34.65
2023-01-19T22:03:58.484Z,37.22
2023-01-19T22:06:25.632Z,34.63
2023-01-19T22:08:52.124Z,32.00
2023-01-19T22:11:19.057Z,32.00
2023-01-19T22:13:45.365Z,25.77
2023-01-19T22:16:15.630Z,24.42
2023-01-19T22:18:42.925Z,24.40
2023-01-19T22:21:12.294Z,27.25
2023-01-19T22:23:39.001Z,24.33
2023-01-19T22:26:05.680Z,17.70
2023-01-19T22:28:32.210Z,16.90
2023-01-19T22:31:09.097Z,20.05
2023-01-19T22:33:35.929Z,21.67
2023-01-19T22:36:13.160Z,22.92
2023-01-19T22:38:40.204Z,23.65
2023-01-19T22:41:26.846Z,28.15
2023-01-19T22:43:54.282Z,28.55
2023-01-19T22:46:21.455Z,32.97
2023-01-19T22:48:48.265Z,32.15
2023-01-19T22:51:15.030Z,17.98
2023-01-19T22:53:41.428Z,17.10
2023-01-19T22:56:11.645Z,14.52
2023-01-19T22:58:40.257Z,17.45
2023-01-19T23:01:07.426Z,22.05
2023-01-19T23:03:34.438Z,21.80
2023-01-19T23:06:08.105Z,20.92
2023-01-19T23:08:35.024Z,20.55
2023-01-19T23:11:08.719Z,17.33
2023-01-19T23:13:35.296Z,20.30
2023-01-19T23:16:02.134Z,20.45
2023-01-19T23:18:28.800Z,18.45
2023-01-19T23:20:55.452Z,18.55
2023-01-19T23:23:21.804Z,18.13
2023-01-19T23:25:48.175Z,16.15
2023-01-19T23:28:14.627Z,21.58
2023-01-19T23:30:41.001Z,19.50
2023-01-19T23:33:07.383Z,21.42
2023-01-19T23:35:34.420Z,16.45
2023-01-19T23:38:00.775Z,17.65
2023-01-19T23:40:27.097Z,16.13
2023-01-19T23:42:54.521Z,20.75
2023-01-19T23:45:20.956Z,12.25
2023-01-19T23:47:47.257Z,14.65
2023-01-19T23:50:13.634Z,12.23
2023-01-19T23:52:39.888Z,12.77
2023-01-19T23:55:06.569Z,13.20
2023-01-19T23:57:32.992Z,15.77
2023-01-19T23:59:59.493Z,19.75
